OJAI/AMM METAR and TAF weather

Enter ICAO airport designator
Station Type Date Time Source
OJAI METAR 2020/04/04 05:00 UTC NOAA

OJAI 040500Z 19004KT 5000 HZ NSC 10/06 Q1020 NOSIG


Station Type Date Time Source
OJAI Decoded METAR 2020/04/04 05:00 UTC NOAA

Queen Alia Airport, Jordan (OJAI) 31-40N 035-58E
Apr 04, 2020 - 01:00 AM EDT / 2020.04.04 0500 UTC
Wind: from the S (190 degrees) at 5 MPH (4 KT):0
Visibility: 3 mile(s):0
Weather: haze
Temperature: 50 F (10 C)
Dew Point: 42 F (6 C)
Relative Humidity: 76%
Pressure (altimeter): 30.12 in. Hg (1020 hPa)
ob: OJAI 040500Z 19004KT 5000 HZ NSC 10/06 Q1020 NOSIG
cycle: 5

Station Type Date Time Source
OJAI TAF 2020/04/04 06:15 UTC NOAA

TAF TAF OJAI 040457Z 0406/0512 13008KT 5000 HZ NSC
BECMG 0421/0423 15014KT 4000
TEMPO 0503/0512 15022KT 3000 BLDU

Example: see airport list